Time;durP1;ratioP1;P1;durP2;ratioP2;P2;SDS_P1;SDS_P2;PMS_P1;PMS_P2;Temp;Humidity;BMP_temperature;BMP_pressure;BME280_temperature;BME280_humidity;BME280_pressure;Samples;Min_cycle;Max_cycle;Signal;HPM_P1;HPM_P2
2022/04/10 00:01:36;;;;;;;2.17;1.98;;;;;;;7.23;100.00;98910.52;1725681;82;21149;-69
2022/04/10 00:04:02;;;;;;;3.02;2.52;;;;;;;7.17;100.00;98914.23;1726045;83;21065;-68
2022/04/10 00:06:29;;;;;;;2.98;2.45;;;;;;;7.11;100.00;98922.36;1725461;83;21096;-70
2022/04/10 00:08:56;;;;;;;3.27;2.98;;;;;;;7.04;100.00;98933.98;1725847;82;21561;-70
2022/04/10 00:11:25;;;;;;;4.42;3.52;;;;;;;6.97;100.00;98933.84;1725869;82;21105;-70
2022/04/10 00:13:54;;;;;;;4.08;3.00;;;;;;;6.91;100.00;98941.05;1725699;83;21568;-70
2022/04/10 00:16:22;;;;;;;3.95;3.35;;;;;;;6.89;100.00;98944.17;1725748;83;20994;-70
2022/04/10 00:18:49;;;;;;;4.75;3.80;;;;;;;6.85;100.00;98945.20;1725800;83;21061;-71
2022/04/10 00:21:17;;;;;;;4.62;3.85;;;;;;;6.78;100.00;98941.14;1726073;82;21057;-71
2022/04/10 00:23:44;;;;;;;5.00;4.20;;;;;;;6.75;100.00;98945.66;1725839;83;21046;-70
2022/04/10 00:26:13;;;;;;;4.97;4.47;;;;;;;6.71;100.00;98948.84;1725846;82;21045;-69
2022/04/10 00:28:41;;;;;;;5.53;4.87;;;;;;;6.66;100.00;98962.58;1725906;83;21049;-69
2022/04/10 00:31:09;;;;;;;6.37;4.90;;;;;;;6.63;100.00;98971.86;1725976;81;21115;-71
2022/04/10 00:33:36;;;;;;;5.20;4.70;;;;;;;6.61;100.00;98974.99;1726095;83;21023;-69
2022/04/10 00:36:04;;;;;;;5.30;4.78;;;;;;;6.57;100.00;98970.78;1718498;83;21585;-70
2022/04/10 00:38:31;;;;;;;5.78;4.97;;;;;;;6.51;100.00;98972.73;1713241;83;21152;-70
2022/04/10 00:40:58;;;;;;;6.87;4.92;;;;;;;6.47;100.00;98975.53;1702729;83;21011;-70
2022/04/10 00:43:30;;;;;;;6.05;5.20;;;;;;;6.42;100.00;98978.33;1713091;83;21050;-70
2022/04/10 00:45:57;;;;;;;7.17;5.60;;;;;;;6.38;100.00;98970.19;1712986;82;21125;-70
2022/04/10 00:48:24;;;;;;;6.72;4.90;;;;;;;6.33;100.00;98976.06;1713089;82;21646;-69
2022/04/10 00:53:38;;;;;;;6.62;5.85;;;;;;;6.25;100.00;98981.55;1682925;85;21103;-69
2022/04/10 00:56:05;;;;;;;6.55;5.58;;;;;;;6.20;100.00;98991.80;1650416;85;21059;-69
2022/04/10 00:58:32;;;;;;;6.87;5.60;;;;;;;6.16;100.00;98988.91;1683060;85;21039;-70
2022/04/10 01:01:00;;;;;;;6.60;5.22;;;;;;;6.13;100.00;98983.80;1683330;84;21080;-70
2022/04/10 01:03:27;;;;;;;6.42;5.65;;;;;;;6.08;100.00;98985.27;1673198;85;21295;-70
2022/04/10 01:05:54;;;;;;;6.97;6.12;;;;;;;6.06;100.00;98977.48;1683036;85;21056;-71
2022/04/10 01:08:23;;;;;;;8.65;6.37;;;;;;;6.02;100.00;98978.49;1683119;84;21045;-69
2022/04/10 01:10:50;;;;;;;8.18;6.67;;;;;;;5.98;100.00;98969.09;1682974;85;21083;-71
2022/04/10 01:13:17;;;;;;;12.65;7.67;;;;;;;5.95;100.00;98968.33;1683035;85;21063;-70
2022/04/10 01:15:44;;;;;;;7.58;6.78;;;;;;;5.91;100.00;98987.61;1683032;84;21248;-70
2022/04/10 01:18:12;;;;;;;7.78;6.95;;;;;;;5.82;100.00;98990.09;1682934;84;21107;-71
2022/04/10 01:20:40;;;;;;;7.70;6.45;;;;;;;5.79;100.00;98998.05;1682855;84;21123;-70
2022/04/10 01:23:09;;;;;;;8.50;6.87;;;;;;;5.74;100.00;98999.52;1682774;85;21107;-70
2022/04/10 01:25:39;;;;;;;8.03;6.87;;;;;;;5.75;100.00;99005.59;1683036;84;21056;-69
2022/04/10 01:28:13;;;;;;;8.03;6.87;;;;;;;5.75;100.00;99012.12;1682850;85;21180;-69
2022/04/10 01:30:43;;;;;;;8.73;7.25;;;;;;;5.75;100.00;99026.48;1683026;83;21040;-70
2022/04/10 01:33:10;;;;;;;8.75;6.50;;;;;;;5.74;100.00;99032.63;1683058;85;21115;-69
2022/04/10 01:35:38;;;;;;;7.75;6.25;;;;;;;5.72;100.00;99041.81;1683108;84;21087;-69
2022/04/10 01:38:06;;;;;;;8.70;6.53;;;;;;;5.73;100.00;99050.50;1691266;84;21642;-70
2022/04/10 01:40:34;;;;;;;7.03;6.28;;;;;;;5.68;100.00;99047.62;1695093;84;21171;-69
2022/04/10 01:43:02;;;;;;;6.80;5.80;;;;;;;5.66;100.00;99050.73;1695350;84;21075;-70
2022/04/10 01:45:31;;;;;;;6.65;5.75;;;;;;;5.63;100.00;99052.12;1695601;84;21299;-69
2022/04/10 01:47:59;;;;;;;9.40;5.95;;;;;;;5.60;100.00;99052.70;1695566;83;21071;-68
2022/04/10 01:50:26;;;;;;;7.47;6.30;;;;;;;5.56;100.00;99055.85;1706084;83;21053;-70
2022/04/10 01:52:53;;;;;;;6.45;5.80;;;;;;;5.56;100.00;99051.93;1726052;83;21157;-69
2022/04/10 01:55:22;;;;;;;8.65;6.22;;;;;;;5.56;100.00;99057.16;1726299;83;21057;-70
2022/04/10 01:57:49;;;;;;;8.33;6.45;;;;;;;5.53;100.00;99058.58;1726286;82;21070;-71
2022/04/10 02:00:17;;;;;;;9.55;6.72;;;;;;;5.50;100.00;99057.38;1726161;82;21060;-69
2022/04/10 02:02:45;;;;;;;6.45;5.35;;;;;;;5.46;100.00;99054.47;1726380;83;21033;-69
2022/04/10 02:05:14;;;;;;;7.20;5.80;;;;;;;5.40;100.00;99054.20;1726088;82;21260;-70
2022/04/10 02:07:40;;;;;;;7.87;6.45;;;;;;;5.38;100.00;99061.69;1709381;83;22357;-69
2022/04/10 02:10:09;;;;;;;7.80;6.20;;;;;;;5.36;100.00;99062.19;1726120;82;21045;-71
2022/04/10 02:12:36;;;;;;;8.30;6.62;;;;;;;5.32;100.00;99068.44;1725973;83;21030;-70
2022/04/10 02:15:06;;;;;;;8.20;5.97;;;;;;;5.29;100.00;99066.78;1726072;82;21042;-70
2022/04/10 02:17:33;;;;;;;7.72;6.62;;;;;;;5.26;100.00;99070.31;1726387;82;21267;-70
2022/04/10 02:20:02;;;;;;;7.53;5.90;;;;;;;5.25;100.00;99079.06;1725961;82;21013;-69
2022/04/10 02:22:29;;;;;;;8.20;5.62;;;;;;;5.23;100.00;99083.48;1726068;82;21097;-69
2022/04/10 02:24:59;;;;;;;7.22;6.25;;;;;;;5.20;100.00;99091.42;1726123;82;21097;-68
2022/04/10 02:27:26;;;;;;;7.05;6.03;;;;;;;5.20;100.00;99097.94;1726289;83;21069;-70
2022/04/10 02:29:53;;;;;;;8.58;5.85;;;;;;;5.18;100.00;99111.48;1726063;81;21311;-70
2022/04/10 02:32:20;;;;;;;7.85;5.87;;;;;;;5.16;100.00;99110.68;1726048;83;21011;-70
2022/04/10 02:34:47;;;;;;;6.78;5.62;;;;;;;5.10;100.00;99112.16;1726086;83;21549;-70
2022/04/10 02:37:16;;;;;;;6.83;5.67;;;;;;;5.09;100.00;99114.84;1723462;82;21109;-69
2022/04/10 02:39:44;;;;;;;7.08;5.50;;;;;;;5.07;100.00;99120.09;1713349;83;21097;-70
2022/04/10 02:42:11;;;;;;;8.28;5.53;;;;;;;5.03;100.00;99115.87;1713019;83;21193;-70
2022/04/10 02:44:38;;;;;;;8.25;5.45;;;;;;;5.01;100.00;99113.75;1702788;83;21065;-69
2022/04/10 02:47:07;;;;;;;8.00;6.03;;;;;;;4.98;100.00;99119.08;1702773;83;21490;-70
2022/04/10 02:49:34;;;;;;;6.80;5.35;;;;;;;4.97;100.00;99117.34;1713072;82;21034;-68
2022/04/10 02:52:01;;;;;;;7.55;5.55;;;;;;;4.95;100.00;99117.87;1670935;85;21072;-70
2022/04/10 02:54:28;;;;;;;6.97;5.40;;;;;;;4.90;100.00;99122.35;1670901;85;21247;-70
2022/04/10 02:56:55;;;;;;;7.53;5.60;;;;;;;4.87;100.00;99127.22;1670981;85;21109;-70
2022/04/10 02:59:24;;;;;;;8.38;4.90;;;;;;;4.86;100.00;99125.98;1671002;85;21073;-69
2022/04/10 03:01:51;;;;;;;10.75;5.53;;;;;;;4.86;100.00;99132.50;1671160;85;21089;-70
2022/04/10 03:04:22;;;;;;;8.00;5.42;;;;;;;4.82;100.00;99137.78;1671127;85;21081;-70
2022/04/10 03:06:49;;;;;;;7.42;5.33;;;;;;;4.80;100.00;99143.49;1651668;85;21546;-70
2022/04/10 03:09:20;;;;;;;5.70;4.55;;;;;;;4.78;100.00;99145.28;1671501;85;21030;-70
2022/04/10 03:11:49;;;;;;;6.30;4.78;;;;;;;4.77;100.00;99144.90;1671364;85;21054;-70
2022/04/10 03:14:17;;;;;;;6.17;4.65;;;;;;;4.76;100.00;99146.23;1670989;85;21061;-71
2022/04/10 03:16:46;;;;;;;7.75;4.70;;;;;;;4.76;100.00;99148.42;1671241;85;21098;-70
2022/04/10 03:19:13;;;;;;;6.37;4.78;;;;;;;4.73;100.00;99143.27;1671040;85;21316;-70
2022/04/10 03:21:41;;;;;;;7.33;5.22;;;;;;;4.71;100.00;99145.06;1670837;85;21057;-70
2022/04/10 03:24:09;;;;;;;5.47;4.62;;;;;;;4.72;100.00;99144.19;1671231;85;21061;-70
2022/04/10 03:26:35;;;;;;;6.58;5.20;;;;;;;4.70;100.00;99149.89;1671049;85;21120;-69
2022/04/10 03:29:04;;;;;;;6.33;5.20;;;;;;;4.71;100.00;99148.98;1670827;85;21069;-69
2022/04/10 03:31:31;;;;;;;7.28;5.37;;;;;;;4.71;100.00;99147.67;1671091;84;21151;-71
2022/04/10 03:33:58;;;;;;;11.03;5.35;;;;;;;4.71;100.00;99148.98;1671096;85;21057;-71
2022/04/10 03:36:25;;;;;;;7.50;5.62;;;;;;;4.70;100.00;99148.59;1671196;85;21053;-70
2022/04/10 03:38:53;;;;;;;8.25;5.70;;;;;;;4.68;100.00;99145.16;1671156;85;21042;-70
2022/04/10 03:41:19;;;;;;;8.63;5.78;;;;;;;4.66;100.00;99150.02;1671128;85;21064;-70
2022/04/10 03:43:46;;;;;;;8.60;5.30;;;;;;;4.63;100.00;99157.03;1671119;85;21225;-71
2022/04/10 03:46:15;;;;;;;6.15;5.37;;;;;;;4.64;100.00;99157.88;1670924;85;21300;-71
2022/04/10 03:48:44;;;;;;;6.20;4.65;;;;;;;4.63;100.00;99160.09;1670915;85;21490;-70
2022/04/10 03:51:11;;;;;;;6.65;5.37;;;;;;;4.61;100.00;99159.28;1698647;83;21050;-69
2022/04/10 03:53:38;;;;;;;6.47;4.60;;;;;;;4.62;100.00;99161.86;1713064;82;21070;-70
2022/04/10 03:56:05;;;;;;;8.73;5.37;;;;;;;4.62;100.00;99158.37;1712954;83;21137;-71
2022/04/10 03:58:33;;;;;;;7.40;5.08;;;;;;;4.64;100.00;99161.80;1713059;83;21058;-69
2022/04/10 04:01:00;;;;;;;10.28;5.70;;;;;;;4.63;100.00;99160.09;1713055;83;21070;-70
2022/04/10 04:03:27;;;;;;;7.58;5.10;;;;;;;4.63;100.00;99155.73;1713124;82;21121;-70
2022/04/10 04:05:55;;;;;;;9.48;4.87;;;;;;;4.65;100.00;99154.81;1713252;83;21050;-70
2022/04/10 04:08:23;;;;;;;5.83;4.47;;;;;;;4.67;100.00;99166.06;1713316;83;21248;-70
2022/04/10 04:10:51;;;;;;;9.78;5.42;;;;;;;4.70;100.00;99161.63;1713382;83;21024;-69
2022/04/10 04:13:18;;;;;;;8.38;6.12;;;;;;;4.74;100.00;99164.98;1713077;82;21618;-70
2022/04/10 04:15:46;;;;;;;9.13;5.60;;;;;;;4.77;100.00;99168.38;1713133;82;21002;-69
2022/04/10 04:18:15;;;;;;;6.90;5.20;;;;;;;4.80;100.00;99169.58;1713031;82;21055;-69
2022/04/10 04:20:43;;;;;;;8.35;5.78;;;;;;;4.87;100.00;99170.72;1713121;82;21031;-69
2022/04/10 04:23:10;;;;;;;10.63;6.22;;;;;;;4.92;100.00;99175.34;1712991;83;21082;-69
2022/04/10 04:25:36;;;;;;;7.90;5.50;;;;;;;4.94;100.00;99172.24;1713231;83;21073;-70
2022/04/10 04:28:05;;;;;;;8.85;5.87;;;;;;;4.99;100.00;99179.05;1713037;82;21128;-70
2022/04/10 04:30:33;;;;;;;7.85;5.75;;;;;;;5.06;100.00;99182.31;1713332;82;21312;-70
2022/04/10 04:33:02;;;;;;;8.33;5.70;;;;;;;5.09;100.00;99183.55;1712935;82;21160;-69
2022/04/10 04:35:29;;;;;;;12.37;5.95;;;;;;;5.21;100.00;99187.08;1712923;82;21121;-70
2022/04/10 04:38:00;;;;;;;9.18;5.58;;;;;;;5.26;100.00;99194.31;1715915;82;21105;-69
2022/04/10 04:40:28;;;;;;;7.33;5.17;;;;;;;5.32;100.00;99198.97;1725818;82;21034;-70
2022/04/10 04:42:56;;;;;;;8.03;4.60;;;;;;;5.38;100.00;99209.20;1725693;83;21065;-71
2022/04/10 04:45:24;;;;;;;6.33;4.95;;;;;;;5.44;100.00;99222.09;1726078;83;21140;-70
2022/04/10 04:50:44;;;;;;;9.78;5.80;;;;;;;5.56;100.00;99230.84;1894496;75;27839;-70
2022/04/10 04:53:11;;;;;;;8.48;5.75;;;;;;;5.54;100.00;99230.48;1879215;76;21604;-70
2022/04/10 04:55:39;;;;;;;7.45;5.97;;;;;;;5.60;100.00;99240.30;1879223;76;21191;-71
2022/04/10 04:58:08;;;;;;;9.50;5.83;;;;;;;5.67;100.00;99240.50;1878769;76;20985;-69
2022/04/10 05:00:36;;;;;;;7.92;5.90;;;;;;;5.74;100.00;99244.24;1874191;76;21556;-70
2022/04/10 05:03:04;;;;;;;8.80;5.47;;;;;;;5.78;100.00;99248.47;1858851;77;21024;-71
2022/04/10 05:05:31;;;;;;;11.53;6.03;;;;;;;5.82;100.00;99259.20;1858934;77;22170;-70
2022/04/10 05:08:00;;;;;;;8.50;5.70;;;;;;;5.87;100.00;99267.78;1857654;77;21224;-70
2022/04/10 05:10:29;;;;;;;9.00;6.22;;;;;;;5.93;100.00;99269.33;1858950;77;21509;-69
2022/04/10 05:12:57;;;;;;;8.85;6.20;;;;;;;5.97;100.00;99265.75;1858719;77;21028;-70
2022/04/10 05:15:25;;;;;;;5.75;4.42;;;;;;;6.00;100.00;99269.56;1858927;77;21584;-71
2022/04/10 05:17:53;;;;;;;6.37;5.25;;;;;;;6.08;100.00;99269.73;1859033;77;21017;-71
2022/04/10 05:20:22;;;;;;;7.90;4.90;;;;;;;6.16;100.00;99268.63;1858622;77;21001;-70
2022/04/10 05:22:51;;;;;;;8.78;6.45;;;;;;;6.21;100.00;99269.31;1857667;77;21079;-69
2022/04/10 05:25:19;;;;;;;6.95;5.20;;;;;;;6.31;100.00;99273.36;1858642;77;21060;-70
2022/04/10 05:27:49;;;;;;;7.83;5.33;;;;;;;6.39;100.00;99276.55;1858786;77;20985;-71
2022/04/10 05:30:16;;;;;;;9.90;6.00;;;;;;;6.48;100.00;99282.78;1856108;77;21562;-70
2022/04/10 05:32:46;;;;;;;6.30;5.30;;;;;;;6.56;100.00;99281.23;1851744;77;21044;-70
2022/04/10 05:35:13;;;;;;;8.38;5.62;;;;;;;6.62;100.00;99285.38;1851508;77;21030;-70
2022/04/10 05:37:40;;;;;;;8.83;5.92;;;;;;;6.69;100.00;99288.19;1852040;77;21085;-71
2022/04/10 05:40:10;;;;;;;7.60;5.60;;;;;;;6.72;100.00;99286.80;1851610;77;21078;-71
2022/04/10 05:42:40;;;;;;;10.90;6.23;;;;;;;6.78;100.00;99287.02;1821505;77;21058;-71
2022/04/10 05:45:08;;;;;;;6.90;6.13;;;;;;;6.83;100.00;99292.94;1820893;77;21328;-72
2022/04/10 05:47:39;;;;;;;7.15;5.60;;;;;;;6.88;100.00;99290.58;1851449;77;21003;-71
2022/04/10 05:50:08;;;;;;;6.50;5.10;;;;;;;6.96;100.00;99293.38;1848356;76;21076;-71
2022/04/10 05:52:41;;;;;;;8.43;5.75;;;;;;;7.08;100.00;99296.86;1763090;81;21018;-69
2022/04/10 05:55:08;;;;;;;6.87;5.50;;;;;;;7.14;100.00;99294.02;1760948;81;21044;-70
2022/04/10 05:57:35;;;;;;;8.13;4.75;;;;;;;7.16;100.00;99289.59;1794312;80;21797;-70
2022/04/10 06:00:08;;;;;;;6.90;4.95;;;;;;;7.28;100.00;99302.22;1762525;80;21072;-71
2022/04/10 06:02:39;;;;;;;6.92;5.33;;;;;;;7.35;100.00;99297.16;1810038;79;21079;-71
2022/04/10 06:05:08;;;;;;;8.88;5.60;;;;;;;7.44;100.00;99300.36;1810689;79;21480;-71
2022/04/10 06:07:36;;;;;;;6.92;5.15;;;;;;;7.55;100.00;99302.13;1809163;79;21606;-71
2022/04/10 06:10:06;;;;;;;6.95;4.83;;;;;;;7.63;100.00;99300.05;1810698;79;21261;-70
2022/04/10 06:12:33;;;;;;;7.58;5.00;;;;;;;7.74;100.00;99303.11;1810791;79;21032;-71
2022/04/10 06:15:00;;;;;;;6.92;5.10;;;;;;;7.82;100.00;99308.51;1810784;79;20989;-71
2022/04/10 06:17:27;;;;;;;9.30;5.28;;;;;;;7.88;100.00;99307.81;1810907;79;21103;-71
2022/04/10 06:19:54;;;;;;;6.17;4.75;;;;;;;7.89;100.00;99311.28;1810900;79;21036;-70
2022/04/10 06:22:23;;;;;;;7.35;5.20;;;;;;;7.94;100.00;99309.36;1810960;79;21237;-71
2022/04/10 06:24:51;;;;;;;6.65;4.33;;;;;;;8.08;100.00;99304.42;1811108;79;21020;-71
2022/04/10 06:27:19;;;;;;;7.15;4.75;;;;;;;8.25;100.00;99302.41;1810962;79;21004;-70
2022/04/10 06:29:47;;;;;;;5.92;4.08;;;;;;;8.49;98.90;99304.54;1811082;79;21056;-70
2022/04/10 06:32:16;;;;;;;5.25;4.05;;;;;;;8.67;98.65;99305.98;1810843;79;21095;-71
2022/04/10 06:34:43;;;;;;;4.92;3.92;;;;;;;8.88;97.41;99305.08;1810699;79;21144;-70
2022/04/10 06:37:14;;;;;;;5.67;3.72;;;;;;;9.05;96.77;99302.17;1810762;79;21040;-69
2022/04/10 06:39:41;;;;;;;5.20;3.08;;;;;;;9.21;95.10;99307.14;1810894;79;21031;-70
2022/04/10 06:42:08;;;;;;;5.00;3.27;;;;;;;9.28;90.95;99294.12;1810926;79;21111;-70
2022/04/10 06:44:48;;;;;;;4.50;3.27;;;;;;;9.34;91.38;99298.23;1809461;79;21032;-70
2022/04/10 06:47:20;;;;;;;3.98;3.40;;;;;;;9.39;91.28;99299.75;1809303;79;21147;-71
2022/04/10 06:49:48;;;;;;;5.67;3.30;;;;;;;9.43;89.05;99305.27;1807904;78;21040;-70
2022/04/10 06:52:15;;;;;;;5.08;3.22;;;;;;;9.48;88.59;99310.31;1801089;79;21091;-70
2022/04/10 06:54:42;;;;;;;4.95;3.22;;;;;;;9.52;87.30;99322.83;1801005;79;21021;-71
2022/04/10 06:57:09;;;;;;;3.95;2.65;;;;;;;9.52;87.81;99318.42;1801005;79;21587;-72
2022/04/10 06:59:35;;;;;;;6.37;3.15;;;;;;;9.56;86.42;99325.25;1801032;79;21125;-70
2022/04/10 07:02:04;;;;;;;7.67;3.45;;;;;;;9.67;85.99;99327.39;1801151;79;20989;-70
2022/04/10 07:04:30;;;;;;;4.78;3.05;;;;;;;9.73;85.39;99320.55;1801367;79;21044;-70
2022/04/10 07:06:59;;;;;;;11.03;4.50;;;;;;;9.83;85.16;99331.48;1776459;79;22267;-71
2022/04/10 07:09:26;;;;;;;7.28;4.28;;;;;;;9.96;85.33;99340.95;1801264;79;21009;-70
2022/04/10 07:11:53;;;;;;;4.58;3.00;;;;;;;10.10;85.02;99339.86;1800808;79;21473;-71
2022/04/10 07:14:22;;;;;;;4.70;2.45;;;;;;;10.23;83.30;99338.32;1774413;79;21012;-71
2022/04/10 07:16:48;;;;;;;5.80;2.90;;;;;;;10.36;82.17;99341.73;1801048;79;21020;-70
2022/04/10 07:19:15;;;;;;;5.40;3.47;;;;;;;10.39;80.27;99345.52;1800913;79;21544;-71
2022/04/10 07:24:30;;;;;;;4.00;2.67;;;;;;;10.54;79.34;99359.25;1776387;79;21926;-72
2022/04/10 07:26:58;;;;;;;5.22;2.37;;;;;;;10.51;79.21;99356.75;1800983;79;21084;-71
2022/04/10 07:29:27;;;;;;;5.08;3.02;;;;;;;10.56;77.99;99362.66;1800606;79;21040;-71
2022/04/10 07:31:54;;;;;;;4.05;2.70;;;;;;;10.55;77.84;99368.00;1801083;79;21079;-72
2022/04/10 07:34:20;;;;;;;4.83;2.60;;;;;;;10.61;77.45;99365.08;1801382;79;21017;-71
2022/04/10 07:36:49;;;;;;;4.60;2.52;;;;;;;10.68;76.54;99369.95;1799309;79;21860;-70
2022/04/10 07:39:16;;;;;;;3.37;2.30;;;;;;;10.67;76.02;99370.89;1801321;79;21040;-70
2022/04/10 07:41:44;;;;;;;4.97;2.83;;;;;;;10.63;76.14;99379.86;1800771;79;21032;-71
2022/04/10 07:44:14;;;;;;;5.55;2.75;;;;;;;10.70;76.75;99379.95;1800131;79;21009;-71
2022/04/10 07:49:27;;;;;;;4.22;2.40;;;;;;;10.85;75.89;99386.69;1800806;79;21853;-69
2022/04/10 07:51:55;;;;;;;4.92;2.42;;;;;;;10.87;74.50;99388.78;1799757;79;21013;-72
2022/04/10 07:54:27;;;;;;;4.17;2.20;;;;;;;10.81;74.07;99396.98;1799895;79;21027;-70
2022/04/10 07:56:56;;;;;;;3.25;2.33;;;;;;;10.75;74.76;99389.41;1800731;79;21068;-70
2022/04/10 07:59:25;;;;;;;4.33;3.17;;;;;;;10.74;74.10;99389.00;1800611;79;22008;-70
2022/04/10 08:01:53;;;;;;;5.05;2.72;;;;;;;10.77;73.69;99392.82;1800923;79;21537;-71
2022/04/10 08:04:22;;;;;;;3.95;2.65;;;;;;;10.65;72.23;99401.71;1800258;79;21080;-70
2022/04/10 08:06:50;;;;;;;4.25;2.87;;;;;;;10.61;73.13;99392.25;1799800;79;21044;-69
2022/04/10 08:09:18;;;;;;;4.20;2.55;;;;;;;10.64;73.16;99394.72;1800965;79;20989;-71
2022/04/10 08:11:47;;;;;;;6.78;3.02;;;;;;;10.71;72.18;99393.48;1801293;79;21099;-71
2022/04/10 08:14:15;;;;;;;5.30;2.80;;;;;;;10.81;69.05;99398.30;1801106;79;21524;-69
2022/04/10 08:16:41;;;;;;;5.08;2.83;;;;;;;10.84;66.91;99399.02;1800948;79;21462;-70
2022/04/10 08:19:10;;;;;;;4.90;2.70;;;;;;;10.83;67.71;99407.83;1801028;79;21045;-70
2022/04/10 08:21:36;;;;;;;4.33;2.60;;;;;;;10.88;67.95;99406.28;1801228;79;21044;-71
2022/04/10 08:24:07;;;;;;;3.55;2.55;;;;;;;10.94;67.31;99400.72;1801018;79;21016;-69
2022/04/10 08:26:34;;;;;;;5.20;2.10;;;;;;;10.98;67.22;99410.17;1801313;79;21245;-70
2022/04/10 08:29:01;;;;;;;5.12;2.45;;;;;;;11.05;66.23;99407.63;1800805;79;21036;-72
2022/04/10 08:31:29;;;;;;;4.87;2.70;;;;;;;11.07;65.56;99403.12;1801071;79;21071;-70
2022/04/10 08:33:56;;;;;;;5.75;2.80;;;;;;;11.15;64.95;99403.20;1800904;79;21037;-70
2022/04/10 08:36:23;;;;;;;7.00;2.50;;;;;;;11.21;63.71;99405.53;1801093;79;21008;-71
2022/04/10 08:38:49;;;;;;;4.55;2.60;;;;;;;11.23;63.73;99406.31;1800937;79;21298;-69
2022/04/10 08:41:18;;;;;;;5.35;2.47;;;;;;;11.23;62.86;99411.11;1800742;79;21053;-70
2022/04/10 08:43:46;;;;;;;4.92;2.87;;;;;;;11.21;62.70;99416.08;1800974;79;21024;-70
2022/04/10 08:46:13;;;;;;;4.60;2.67;;;;;;;11.13;62.40;99410.73;1800712;79;20985;-70
2022/04/10 08:48:40;;;;;;;5.87;3.17;;;;;;;11.10;62.67;99418.77;1800973;79;21035;-70
2022/04/10 08:51:07;;;;;;;7.45;3.22;;;;;;;11.02;62.43;99414.37;1776284;79;21186;-69
2022/04/10 08:53:34;;;;;;;5.53;3.15;;;;;;;10.94;62.55;99408.63;1800956;79;21056;-70
2022/04/10 08:56:01;;;;;;;6.12;3.12;;;;;;;10.88;63.81;99408.91;1800907;79;21056;-71
2022/04/10 08:58:27;;;;;;;6.40;3.37;;;;;;;10.93;64.50;99404.30;1784817;80;21102;-70
2022/04/10 09:00:55;;;;;;;4.80;2.60;;;;;;;11.00;64.62;99414.91;1800998;79;21064;-71
2022/04/10 09:03:24;;;;;;;4.90;3.10;;;;;;;11.01;64.31;99411.33;1800666;79;21058;-70
2022/04/10 09:06:03;;;;;;;7.35;3.17;;;;;;;11.06;64.45;99416.38;1800665;79;21534;-70
2022/04/10 09:08:30;;;;;;;3.72;2.60;;;;;;;11.09;64.97;99417.08;1785009;80;21082;-69
2022/04/10 09:11:04;;;;;;;5.30;2.95;;;;;;;11.15;63.54;99418.54;1784711;80;21034;-71
2022/04/10 09:13:51;;;;;;;5.65;3.17;;;;;;;11.23;63.94;99422.13;1800881;79;20993;-71
2022/04/10 09:16:16;;;;;;;5.08;3.22;;;;;;;11.18;62.16;99430.70;1778048;80;22254;-71
2022/04/10 09:19:00;;;;;;;4.75;3.08;;;;;;;11.00;63.25;99427.23;1784726;80;21011;-69
2022/04/10 09:21:33;;;;;;;7.10;3.67;;;;;;;10.89;63.14;99423.81;1784704;80;21566;-70
2022/04/10 09:24:06;;;;;;;7.72;3.27;;;;;;;10.81;64.50;99427.27;1801131;79;21247;-71
2022/04/10 09:26:50;;;;;;;8.20;3.40;;;;;;;10.87;64.95;99425.19;1784743;80;21258;-72
2022/04/10 09:29:23;;;;;;;5.20;3.15;;;;;;;10.96;65.21;99428.31;1784581;80;21118;-71
2022/04/10 09:31:54;;;;;;;4.70;2.77;;;;;;;10.97;65.13;99425.58;1777208;79;21041;-70
2022/04/10 09:34:23;;;;;;;5.20;3.15;;;;;;;11.02;65.21;99428.86;1778372;80;21024;-70
2022/04/10 09:37:03;;;;;;;6.40;3.72;;;;;;;11.07;65.76;99426.84;1778241;80;21033;-73
2022/04/10 09:39:32;;;;;;;7.10;4.35;;;;;;;11.15;67.73;99428.23;1778930;80;21076;-71
2022/04/10 09:42:09;;;;;;;5.00;3.50;;;;;;;11.13;70.41;99422.59;1769564;81;21188;-70
2022/04/10 09:44:39;;;;;;;6.92;3.98;;;;;;;11.11;72.13;99423.13;1769562;80;21601;-71
2022/04/10 09:47:09;;;;;;;4.90;4.40;;;;;;;11.10;73.57;99421.41;1769149;81;20990;-71
2022/04/10 10:01:38;;;;;;;6.08;4.67;;;;;;;11.81;75.89;99412.48;1853789;77;22614;-71
2022/04/10 10:04:07;;;;;;;6.15;4.25;;;;;;;11.81;76.50;99414.27;1825108;78;20969;-71
2022/04/10 10:06:35;;;;;;;5.67;4.28;;;;;;;11.66;73.58;99408.01;1825694;78;21151;-71
2022/04/10 10:09:01;;;;;;;6.62;4.58;;;;;;;11.51;72.89;99417.59;1759804;78;21135;-71
2022/04/10 10:11:29;;;;;;;5.90;4.70;;;;;;;11.35;74.63;99413.58;1825900;78;21543;-72
2022/04/10 10:13:57;;;;;;;6.90;4.58;;;;;;;11.20;77.03;99415.67;1794527;78;20976;-71
2022/04/10 10:16:24;;;;;;;6.58;4.62;;;;;;;10.96;77.55;99423.89;1825862;78;22246;-70
2022/04/10 10:18:52;;;;;;;5.85;4.60;;;;;;;10.75;78.77;99423.64;1825902;78;21537;-72
2022/04/10 10:21:20;;;;;;;7.97;4.70;;;;;;;10.63;80.30;99424.63;1825754;78;21004;-70
2022/04/10 10:23:50;;;;;;;6.37;4.45;;;;;;;10.60;81.24;99436.60;1825695;78;20925;-72
2022/04/10 10:26:52;;;;;;;8.70;5.10;;;;;;;10.57;80.88;99434.12;1826187;78;20988;-72
2022/04/10 10:30:07;;;;;;;8.00;3.67;;;;;;;10.48;80.56;99438.52;1825686;78;21470;-70
2022/04/10 10:32:52;;;;;;;5.08;3.77;;;;;;;10.39;79.49;99435.00;1825708;78;21005;-70
2022/04/10 10:35:40;;;;;;;5.17;3.75;;;;;;;10.23;76.70;99438.31;1825733;78;21068;-70
2022/04/10 10:38:25;;;;;;;4.55;3.00;;;;;;;10.03;74.26;99444.95;1825843;78;21056;-71
2022/04/10 10:41:10;;;;;;;6.80;4.00;;;;;;;9.87;74.22;99461.45;1824705;78;21065;-70
2022/04/10 10:43:37;;;;;;;6.58;3.85;;;;;;;9.77;75.71;99454.88;1786349;78;21454;-71
2022/04/10 10:46:24;;;;;;;5.08;3.70;;;;;;;9.71;77.85;99449.91;1825699;78;21126;-72
2022/04/10 10:49:06;;;;;;;6.75;4.40;;;;;;;9.64;78.46;99454.58;1799628;78;21072;-72
2022/04/10 10:51:39;;;;;;;5.03;4.53;;;;;;;9.57;79.81;99458.84;1713003;80;21076;-71
2022/04/10 10:54:11;;;;;;;6.25;4.42;;;;;;;9.52;82.41;99465.61;1784337;80;21497;-71
2022/04/10 10:56:41;;;;;;;7.42;4.20;;;;;;;9.45;84.91;99458.48;1785428;80;21069;-71
2022/04/10 10:59:33;;;;;;;5.80;4.37;;;;;;;9.39;86.31;99465.30;1784963;80;21995;-71
2022/04/10 11:02:06;;;;;;;5.90;4.03;;;;;;;9.29;87.47;99466.59;1754592;80;21049;-71
2022/04/10 11:04:53;;;;;;;8.80;5.08;;;;;;;9.22;88.32;99459.89;1784528;80;21017;-71
2022/04/10 11:07:25;;;;;;;6.83;4.58;;;;;;;9.13;87.95;99473.41;1784591;80;21025;-70
2022/04/10 11:10:01;;;;;;;7.20;4.15;;;;;;;9.06;89.91;99469.34;1784509;80;21069;-71
2022/04/10 11:12:33;;;;;;;10.28;6.00;;;;;;;9.01;90.03;99470.38;1784842;80;21229;-69
2022/04/10 11:15:07;;;;;;;6.92;4.70;;;;;;;9.07;90.91;99467.13;1775868;80;21045;-70
2022/04/10 11:17:33;;;;;;;7.17;4.60;;;;;;;9.15;91.08;99463.70;1783549;80;21080;-70
2022/04/10 11:20:07;;;;;;;10.60;4.30;;;;;;;9.21;91.70;99464.30;1784439;79;20999;-71
2022/04/10 11:22:37;;;;;;;6.28;3.25;;;;;;;9.29;92.32;99460.03;1784906;80;21524;-71
2022/04/10 11:25:09;;;;;;;6.17;3.62;;;;;;;9.37;91.89;99455.78;1784432;80;21233;-70
2022/04/10 11:27:56;;;;;;;5.45;3.92;;;;;;;9.41;92.26;99456.89;1784805;80;21640;-71
2022/04/10 11:30:31;;;;;;;8.50;5.70;;;;;;;9.48;92.08;99451.36;1755858;80;21044;-71
2022/04/10 11:33:08;;;;;;;4.35;3.85;;;;;;;9.51;92.91;99449.93;1784443;80;21604;-71
2022/04/10 11:35:37;;;;;;;6.37;4.22;;;;;;;9.54;94.58;99453.73;1784605;80;21686;-73
2022/04/10 11:38:15;;;;;;;7.83;4.00;;;;;;;9.56;93.38;99457.14;1784896;80;21230;-72
2022/04/10 11:40:49;;;;;;;5.40;3.70;;;;;;;9.56;93.37;99453.20;1784481;80;21148;-70
2022/04/10 11:43:13;;;;;;;7.40;3.92;;;;;;;9.55;93.79;99454.14;1783955;80;21034;-71
2022/04/10 11:45:39;;;;;;;7.40;3.95;;;;;;;9.56;94.30;99454.52;1784551;80;21033;-71
2022/04/10 11:48:07;;;;;;;7.40;3.92;;;;;;;9.55;95.16;99456.77;1754412;80;21029;-71
2022/04/10 11:50:35;;;;;;;5.33;3.35;;;;;;;9.51;94.55;99457.81;1812787;77;22207;-72
2022/04/10 11:53:14;;;;;;;5.78;3.52;;;;;;;9.47;93.93;99460.17;1854520;77;21013;-72
2022/04/10 11:55:44;;;;;;;5.33;3.67;;;;;;;9.44;93.49;99465.95;1854437;77;21005;-71
2022/04/10 11:58:19;;;;;;;6.00;3.42;;;;;;;9.37;92.10;99460.56;1855055;77;21587;-71
2022/04/10 12:00:59;;;;;;;4.40;3.58;;;;;;;9.36;93.00;99468.51;1854625;77;21539;-71
2022/04/10 12:03:29;;;;;;;10.00;4.25;;;;;;;9.36;92.01;99468.07;1778773;80;21158;-70
2022/04/10 12:05:55;;;;;;;8.17;4.00;;;;;;;9.36;91.96;99460.63;1783534;80;21547;-71
2022/04/10 12:08:24;;;;;;;5.37;3.25;;;;;;;9.41;93.89;99457.36;1779477;80;21493;-72